createdAt,value
2019-04-27T00:01:51.883Z,16.42
2019-04-27T00:04:40.009Z,16.54
2019-04-27T00:07:33.881Z,16.20
2019-04-27T00:10:09.643Z,16.29
2019-04-27T00:12:38.157Z,16.04
2019-04-27T00:15:08.461Z,16.36
2019-04-27T00:18:03.671Z,16.21
2019-04-27T00:20:57.612Z,15.94
2019-04-27T00:23:26.526Z,15.96
2019-04-27T00:25:55.124Z,15.71
2019-04-27T00:28:23.730Z,15.66
2019-04-27T00:30:53.160Z,15.25
2019-04-27T00:33:23.443Z,15.11
2019-04-27T00:36:03.631Z,14.76
2019-04-27T00:38:59.265Z,14.98
2019-04-27T00:41:27.869Z,15.03
2019-04-27T00:43:56.458Z,15.16
2019-04-27T00:46:24.959Z,14.88
2019-04-27T00:48:53.542Z,15.19
2019-04-27T00:51:23.140Z,15.13
2019-04-27T00:53:53.573Z,14.84
2019-04-27T00:56:50.918Z,14.80
2019-04-27T00:59:38.997Z,14.74
2019-04-27T01:02:36.792Z,14.65
2019-04-27T01:05:10.391Z,14.57
2019-04-27T01:07:39.082Z,14.70
2019-04-27T01:10:08.300Z,14.99
2019-04-27T01:12:36.806Z,14.59
2019-04-27T01:15:05.811Z,15.08
2019-04-27T01:17:34.301Z,15.38
2019-04-27T01:20:03.258Z,14.71
2019-04-27T01:22:31.851Z,14.53
2019-04-27T01:25:00.452Z,14.89
2019-04-27T01:27:42.258Z,14.93
2019-04-27T01:30:21.383Z,14.62
2019-04-27T01:32:49.984Z,14.34
2019-04-27T01:35:18.795Z,14.62
2019-04-27T01:37:48.752Z,14.80
2019-04-27T01:40:17.298Z,14.81
2019-04-27T01:42:45.887Z,14.64
2019-04-27T01:45:14.581Z,14.55
2019-04-27T01:47:43.293Z,14.35
2019-04-27T01:50:12.055Z,14.22
2019-04-27T01:52:40.743Z,13.98
2019-04-27T01:55:09.427Z,13.97
2019-04-27T01:57:38.653Z,13.97
2019-04-27T02:00:29.482Z,14.07
2019-04-27T02:03:00.160Z,13.80
2019-04-27T02:05:36.898Z,14.05
2019-04-27T02:08:05.789Z,14.04
2019-04-27T02:10:34.381Z,14.10
2019-04-27T02:13:02.867Z,14.04
2019-04-27T02:15:31.558Z,13.70
2019-04-27T02:18:00.145Z,13.85
2019-04-27T02:20:30.139Z,14.30
2019-04-27T02:22:58.908Z,14.10
2019-04-27T02:25:29.360Z,13.77
2019-04-27T02:28:04.034Z,13.71
2019-04-27T02:31:02.069Z,13.75
2019-04-27T02:33:36.975Z,13.96
2019-04-27T02:36:05.563Z,13.64
2019-04-27T02:38:34.277Z,13.55
2019-04-27T02:41:03.438Z,13.35
2019-04-27T02:43:50.000Z,13.66
2019-04-27T02:46:20.049Z,13.34
2019-04-27T02:48:59.353Z,13.48
2019-04-27T02:51:27.360Z,13.36
2019-04-27T02:53:56.779Z,13.25
2019-04-27T02:56:25.389Z,13.09
2019-04-27T02:58:54.047Z,13.09
2019-04-27T03:01:24.138Z,13.23
2019-04-27T03:03:52.834Z,13.22
2019-04-27T03:06:21.557Z,13.20
2019-04-27T03:08:53.844Z,13.09
2019-04-27T03:11:23.553Z,13.10
2019-04-27T03:14:28.376Z,13.31
2019-04-27T03:17:00.345Z,13.47
2019-04-27T03:19:42.201Z,13.10
2019-04-27T03:22:19.703Z,13.08
2019-04-27T03:25:06.477Z,12.97
2019-04-27T03:27:37.207Z,12.86
2019-04-27T03:30:06.438Z,13.09
2019-04-27T03:32:35.146Z,12.92
2019-04-27T03:35:04.120Z,12.85
2019-04-27T03:37:32.906Z,13.03
2019-04-27T03:40:01.619Z,13.15
2019-04-27T03:42:31.538Z,13.09
2019-04-27T03:45:00.667Z,12.85
2019-04-27T03:47:30.715Z,12.97
2019-04-27T03:50:00.226Z,12.88
2019-04-27T03:52:35.704Z,13.09
2019-04-27T03:55:19.481Z,13.14
2019-04-27T03:58:00.076Z,13.10
2019-04-27T04:00:29.987Z,13.43
2019-04-27T04:03:00.514Z,13.29
2019-04-27T04:05:30.115Z,13.46
2019-04-27T04:08:00.426Z,13.29
2019-04-27T04:10:31.164Z,13.08
2019-04-27T04:13:04.856Z,13.25
2019-04-27T04:15:52.849Z,13.48
2019-04-27T04:18:22.330Z,13.43
2019-04-27T04:20:50.836Z,13.21
2019-04-27T04:23:20.333Z,13.37
2019-04-27T04:25:50.097Z,13.40
2019-04-27T04:28:19.857Z,13.24
2019-04-27T04:30:50.092Z,13.24
2019-04-27T04:33:20.633Z,13.42
2019-04-27T04:35:49.923Z,13.17
2019-04-27T04:38:20.543Z,13.03
2019-04-27T04:40:56.213Z,13.20
2019-04-27T04:43:33.944Z,13.15
2019-04-27T04:46:22.918Z,13.17
2019-04-27T04:48:51.952Z,13.39
2019-04-27T04:51:20.533Z,13.56
2019-04-27T04:53:51.735Z,13.63
2019-04-27T04:56:19.832Z,13.89
2019-04-27T04:58:49.747Z,14.03
2019-04-27T05:01:19.626Z,14.15
2019-04-27T05:03:48.873Z,14.09
2019-04-27T05:06:18.943Z,14.32
2019-04-27T05:08:49.370Z,14.12
2019-04-27T05:11:19.595Z,14.21
2019-04-27T05:13:49.405Z,14.63
2019-04-27T05:16:18.950Z,14.51
2019-04-27T05:18:49.409Z,14.66
2019-04-27T05:21:24.096Z,14.28
2019-04-27T05:23:52.686Z,14.35
2019-04-27T05:26:21.313Z,14.23
2019-04-27T05:28:49.804Z,14.23
2019-04-27T05:31:19.463Z,14.41
2019-04-27T05:33:49.068Z,14.43
2019-04-27T05:36:19.290Z,14.38
2019-04-27T05:38:49.710Z,14.51
2019-04-27T05:41:18.846Z,14.48
2019-04-27T05:44:07.543Z,14.58
2019-04-27T05:47:05.362Z,14.59
2019-04-27T05:49:41.121Z,15.04
2019-04-27T05:52:29.037Z,14.87
2019-04-27T05:54:59.007Z,14.77
2019-04-27T05:57:31.002Z,14.93
2019-04-27T06:00:01.883Z,15.22
2019-04-27T06:02:30.311Z,15.42
2019-04-27T06:05:00.147Z,15.69
2019-04-27T06:07:29.646Z,15.53
2019-04-27T06:09:59.811Z,15.87
2019-04-27T06:12:29.630Z,15.89
2019-04-27T06:14:59.861Z,16.10
2019-04-27T06:17:29.928Z,15.80
2019-04-27T06:19:59.591Z,15.81
2019-04-27T06:22:29.219Z,15.78
2019-04-27T06:25:00.156Z,15.99
2019-04-27T06:27:30.812Z,16.06
2019-04-27T06:29:59.408Z,15.81
2019-04-27T06:32:29.556Z,16.19
2019-04-27T06:34:59.141Z,16.36
2019-04-27T06:37:29.318Z,16.38
2019-04-27T06:39:59.744Z,16.54
2019-04-27T06:42:29.698Z,16.72
2019-04-27T06:44:59.945Z,16.81
2019-04-27T06:47:29.604Z,16.97
2019-04-27T06:49:58.800Z,17.18
2019-04-27T06:52:29.204Z,16.97
2019-04-27T06:54:58.013Z,17.28
2019-04-27T06:57:26.696Z,17.33
2019-04-27T06:59:55.285Z,17.08
2019-04-27T07:02:23.886Z,16.83
2019-04-27T07:04:52.509Z,16.77
2019-04-27T07:07:22.634Z,16.71
2019-04-27T07:09:53.052Z,16.69
2019-04-27T07:12:22.095Z,16.92
2019-04-27T07:14:54.565Z,17.05
2019-04-27T07:17:21.116Z,17.15
2019-04-27T07:19:49.820Z,17.23
2019-04-27T07:22:20.027Z,17.04
2019-04-27T07:24:49.149Z,17.34
2019-04-27T07:27:19.196Z,17.51
2019-04-27T07:29:49.739Z,17.66
2019-04-27T07:32:19.290Z,17.73
2019-04-27T07:34:49.644Z,17.67
2019-04-27T07:37:19.556Z,17.48
2019-04-27T07:39:49.200Z,17.55
2019-04-27T07:42:20.809Z,17.84
2019-04-27T07:45:05.838Z,17.95
2019-04-27T07:47:35.472Z,18.00
2019-04-27T07:50:05.439Z,18.12
2019-04-27T07:52:34.602Z,18.26
2019-04-27T07:55:04.089Z,18.34
2019-04-27T07:57:33.601Z,18.11
2019-04-27T08:00:06.405Z,18.29
2019-04-27T08:02:36.018Z,18.40
2019-04-27T08:05:09.479Z,18.64
2019-04-27T08:07:39.126Z,18.79
2019-04-27T08:10:09.685Z,18.83
2019-04-27T08:12:39.304Z,19.01
2019-04-27T08:15:09.754Z,19.10
2019-04-27T08:17:42.604Z,19.15
2019-04-27T08:20:10.901Z,19.03
2019-04-27T08:22:40.914Z,18.94
2019-04-27T08:25:10.062Z,18.92
2019-04-27T08:27:51.951Z,18.96
2019-04-27T08:30:43.249Z,19.26
2019-04-27T08:33:12.293Z,19.31
2019-04-27T08:35:40.986Z,19.41
2019-04-27T08:38:09.715Z,19.42
2019-04-27T08:40:39.367Z,19.38
2019-04-27T08:43:09.207Z,19.59
2019-04-27T08:45:39.198Z,19.60
2019-04-27T08:48:09.288Z,19.88
2019-04-27T08:50:41.851Z,19.93
2019-04-27T08:53:09.994Z,20.12
2019-04-27T08:55:39.619Z,20.24
2019-04-27T08:58:10.091Z,20.42
2019-04-27T09:00:39.374Z,20.49
2019-04-27T09:03:09.508Z,20.61
2019-04-27T09:05:39.065Z,20.65
2019-04-27T09:08:30.258Z,20.54
2019-04-27T09:11:18.979Z,20.53
2019-04-27T09:14:09.019Z,20.84
2019-04-27T09:17:00.256Z,20.88
2019-04-27T09:19:34.454Z,20.93
2019-04-27T09:22:13.497Z,20.96
2019-04-27T09:24:35.347Z,21.12
2019-04-27T09:27:04.839Z,21.01
2019-04-27T09:29:33.504Z,21.11
2019-04-27T09:32:02.210Z,21.05
2019-04-27T09:34:30.808Z,21.38
2019-04-27T09:36:59.340Z,21.21
2019-04-27T09:39:27.934Z,21.29
2019-04-27T09:41:57.197Z,21.36
2019-04-27T09:44:26.709Z,21.38
2019-04-27T09:46:56.082Z,21.29
2019-04-27T09:49:26.313Z,21.41
2019-04-27T09:51:55.731Z,21.54
2019-04-27T09:54:24.366Z,21.63
2019-04-27T09:56:52.969Z,21.68
2019-04-27T09:59:21.553Z,21.69
2019-04-27T10:01:50.061Z,22.14
2019-04-27T10:04:18.817Z,21.95
2019-04-27T10:06:48.811Z,21.87
2019-04-27T10:09:17.677Z,22.05
2019-04-27T10:11:46.288Z,22.14
2019-04-27T10:14:16.318Z,22.10
2019-04-27T10:16:46.936Z,22.41
2019-04-27T10:19:28.125Z,22.43
2019-04-27T10:21:46.777Z,22.56
2019-04-27T10:24:15.638Z,22.65
2019-04-27T10:26:44.344Z,22.72
2019-04-27T10:29:12.996Z,22.57
2019-04-27T10:31:41.720Z,22.82
2019-04-27T10:34:10.230Z,22.89
2019-04-27T10:36:38.883Z,22.88
2019-04-27T10:39:13.424Z,23.03
2019-04-27T10:41:42.372Z,22.80
2019-04-27T10:44:11.254Z,23.07
2019-04-27T10:46:39.782Z,22.88
2019-04-27T10:49:08.455Z,22.79
2019-04-27T10:51:36.928Z,22.76
2019-04-27T10:54:06.137Z,22.86
2019-04-27T10:56:36.131Z,22.84
2019-04-27T10:59:06.506Z,22.81
2019-04-27T11:01:36.023Z,22.99
2019-04-27T11:04:33.395Z,22.97
2019-04-27T11:07:07.175Z,22.96
2019-04-27T11:09:35.801Z,23.30
2019-04-27T11:12:04.510Z,23.29
2019-04-27T11:14:33.206Z,23.39
2019-04-27T11:17:02.579Z,23.56
2019-04-27T11:19:31.294Z,23.72
2019-04-27T11:21:59.778Z,23.56
2019-04-27T11:24:28.278Z,23.79
2019-04-27T11:26:56.950Z,23.75
2019-04-27T11:29:25.700Z,23.79
2019-04-27T11:31:56.026Z,23.84
2019-04-27T11:34:45.901Z,23.88
2019-04-27T11:37:17.723Z,23.68
2019-04-27T11:39:46.649Z,23.65
2019-04-27T11:42:15.987Z,23.75
2019-04-27T11:44:45.083Z,23.86
2019-04-27T11:47:13.673Z,23.85
2019-04-27T11:49:42.298Z,23.93
2019-04-27T11:52:10.914Z,23.88
2019-04-27T11:54:39.516Z,23.92
2019-04-27T11:57:08.108Z,23.85
2019-04-27T11:59:36.713Z,23.91
2019-04-27T12:02:05.291Z,23.87
2019-04-27T12:04:33.899Z,23.79
2019-04-27T12:07:02.707Z,23.69
2019-04-27T12:09:31.394Z,23.62
2019-04-27T12:12:12.487Z,23.60
2019-04-27T12:14:30.486Z,23.56
2019-04-27T12:16:59.100Z,23.43
2019-04-27T12:19:27.722Z,23.47
2019-04-27T12:21:56.591Z,23.43
2019-04-27T12:24:26.716Z,23.28
2019-04-27T12:27:18.015Z,23.25
2019-04-27T12:30:21.107Z,23.28
2019-04-27T12:32:49.811Z,23.20
2019-04-27T12:35:18.644Z,23.25
2019-04-27T12:37:47.262Z,23.32
2019-04-27T12:40:16.739Z,23.21
2019-04-27T12:42:45.456Z,23.20
2019-04-27T12:45:14.244Z,23.13
2019-04-27T12:47:42.873Z,23.11
2019-04-27T12:50:12.502Z,23.15
2019-04-27T12:52:42.717Z,23.15
2019-04-27T12:55:39.763Z,23.17
2019-04-27T12:58:27.935Z,23.11
2019-04-27T13:00:57.306Z,23.07
2019-04-27T13:03:26.251Z,23.07
2019-04-27T13:05:55.277Z,22.95
2019-04-27T13:08:25.858Z,22.97
2019-04-27T13:10:55.392Z,22.93
2019-04-27T13:13:26.708Z,22.93
2019-04-27T13:15:56.275Z,22.88
2019-04-27T13:18:25.786Z,22.82
2019-04-27T13:20:54.473Z,22.74
2019-04-27T13:23:23.326Z,22.75
2019-04-27T13:25:52.047Z,22.66
2019-04-27T13:28:20.698Z,22.59
2019-04-27T13:30:49.361Z,22.63
2019-04-27T13:33:17.996Z,22.57
2019-04-27T13:35:46.621Z,22.55
2019-04-27T13:38:17.776Z,22.55
2019-04-27T13:41:05.729Z,22.59
2019-04-27T13:43:36.067Z,22.59
2019-04-27T13:46:31.136Z,22.63
2019-04-27T13:49:37.304Z,22.63
2019-04-27T13:52:09.496Z,22.65
2019-04-27T13:54:38.200Z,22.72
2019-04-27T13:57:07.588Z,22.74
2019-04-27T13:59:36.378Z,22.72
2019-04-27T14:02:05.053Z,22.74
2019-04-27T14:04:33.790Z,22.79
2019-04-27T14:07:02.437Z,22.76
2019-04-27T14:09:31.142Z,22.94
2019-04-27T14:12:07.032Z,22.98
2019-04-27T14:14:35.737Z,23.03
2019-04-27T14:17:04.541Z,23.18
2019-04-27T14:19:33.118Z,23.34
2019-04-27T14:22:01.808Z,23.37
2019-04-27T14:24:42.457Z,23.38
2019-04-27T14:27:11.172Z,23.37
2019-04-27T14:29:39.776Z,23.35
2019-04-27T14:32:08.741Z,23.38
2019-04-27T14:34:37.287Z,23.45
2019-04-27T14:37:05.910Z,23.58
2019-04-27T14:39:34.595Z,23.57
2019-04-27T14:42:03.537Z,23.50
2019-04-27T14:44:32.261Z,23.49
2019-04-27T14:47:00.948Z,23.62
2019-04-27T14:49:29.779Z,23.60
2019-04-27T14:51:58.560Z,23.52
2019-04-27T14:54:28.781Z,23.53
2019-04-27T14:56:58.957Z,23.53
2019-04-27T14:59:27.696Z,23.54
2019-04-27T15:01:56.290Z,23.44
2019-04-27T15:04:24.779Z,23.45
2019-04-27T15:06:53.418Z,23.46
2019-04-27T15:09:23.914Z,23.46
2019-04-27T15:11:53.649Z,23.48
2019-04-27T15:14:23.944Z,23.48
2019-04-27T15:16:52.802Z,23.47
2019-04-27T15:19:29.990Z,23.36
2019-04-27T15:22:01.100Z,23.28
2019-04-27T15:24:31.118Z,23.37
2019-04-27T15:27:02.144Z,23.33
2019-04-27T15:29:32.027Z,23.44
2019-04-27T15:32:04.171Z,23.40
2019-04-27T15:34:45.137Z,23.26
2019-04-27T15:37:42.475Z,23.32
2019-04-27T15:40:28.988Z,23.40
2019-04-27T15:43:03.977Z,23.42
2019-04-27T15:45:32.669Z,23.40
2019-04-27T15:48:01.305Z,23.24
2019-04-27T15:50:32.223Z,23.21
2019-04-27T15:53:02.868Z,23.16
2019-04-27T15:55:35.093Z,23.18
2019-04-27T15:58:01.777Z,23.08
2019-04-27T16:00:30.362Z,23.08
2019-04-27T16:02:59.013Z,23.10
2019-04-27T16:05:30.647Z,23.08
2019-04-27T16:08:00.999Z,23.09
2019-04-27T16:10:32.921Z,23.08
2019-04-27T16:13:06.439Z,23.08
2019-04-27T16:15:29.975Z,23.03
2019-04-27T16:17:58.745Z,22.98
2019-04-27T16:20:32.330Z,22.94
2019-04-27T16:23:03.114Z,22.86
2019-04-27T16:25:31.512Z,22.81
2019-04-27T16:27:58.913Z,22.78
2019-04-27T16:30:28.753Z,22.72
2019-04-27T16:32:58.358Z,22.67
2019-04-27T16:35:28.306Z,22.59
2019-04-27T16:38:12.591Z,22.56
2019-04-27T16:40:54.764Z,22.59
2019-04-27T16:43:30.009Z,22.47
2019-04-27T16:46:09.176Z,22.43
2019-04-27T16:48:42.206Z,22.42
2019-04-27T16:51:13.488Z,22.35
2019-04-27T16:53:44.641Z,22.31
2019-04-27T16:56:20.395Z,22.29
2019-04-27T16:58:56.501Z,22.05
2019-04-27T17:01:28.637Z,22.01
2019-04-27T17:03:59.328Z,22.08
2019-04-27T17:06:30.224Z,21.95
2019-04-27T17:09:05.738Z,21.81
2019-04-27T17:11:30.517Z,21.70
2019-04-27T17:14:09.462Z,21.79
2019-04-27T17:17:10.657Z,21.59
2019-04-27T17:19:49.908Z,21.67
2019-04-27T17:22:18.343Z,21.59
2019-04-27T17:24:49.314Z,21.51
2019-04-27T17:27:22.846Z,21.45
2019-04-27T17:29:57.999Z,21.41
2019-04-27T17:32:38.865Z,21.34
2019-04-27T17:35:11.766Z,21.23
2019-04-27T17:37:38.297Z,21.24
2019-04-27T17:40:07.500Z,21.42
2019-04-27T17:42:36.273Z,21.26
2019-04-27T17:45:05.360Z,21.26
2019-04-27T17:47:33.929Z,21.26
2019-04-27T17:50:03.417Z,21.24
2019-04-27T17:52:32.110Z,21.19
2019-04-27T17:55:01.688Z,21.12
2019-04-27T17:57:30.488Z,21.07
2019-04-27T18:00:03.116Z,21.03
2019-04-27T18:02:33.915Z,20.77
2019-04-27T18:05:00.468Z,20.65
2019-04-27T18:07:30.200Z,20.73
2019-04-27T18:09:58.787Z,20.39
2019-04-27T18:12:28.553Z,20.30
2019-04-27T18:14:58.151Z,20.13
2019-04-27T18:17:28.744Z,20.03
2019-04-27T18:20:00.288Z,19.73
2019-04-27T18:22:36.412Z,19.63
2019-04-27T18:25:06.665Z,19.50
2019-04-27T18:27:58.339Z,19.33
2019-04-27T18:30:49.505Z,19.21
2019-04-27T18:33:18.448Z,19.40
2019-04-27T18:35:49.021Z,19.20
2019-04-27T18:38:17.728Z,19.27
2019-04-27T18:40:46.402Z,19.03
2019-04-27T18:43:15.114Z,19.03
2019-04-27T18:45:44.881Z,18.93
2019-04-27T18:48:20.398Z,18.86
2019-04-27T18:51:08.638Z,18.58
2019-04-27T18:53:37.254Z,18.97
2019-04-27T18:56:10.129Z,19.02
2019-04-27T18:58:36.497Z,18.93
2019-04-27T19:01:05.096Z,18.56
2019-04-27T19:03:33.699Z,18.62
2019-04-27T19:06:02.411Z,18.51
2019-04-27T19:08:31.012Z,18.48
2019-04-27T19:11:00.388Z,18.49
2019-04-27T19:13:29.169Z,18.22
2019-04-27T19:15:57.872Z,17.94
2019-04-27T19:18:28.145Z,17.98
2019-04-27T19:20:58.440Z,17.79
2019-04-27T19:23:28.362Z,17.38
2019-04-27T19:26:16.612Z,17.42
2019-04-27T19:29:04.862Z,17.39
2019-04-27T19:31:38.274Z,17.36
2019-04-27T19:34:06.881Z,17.41
2019-04-27T19:36:35.493Z,17.13
2019-04-27T19:39:06.425Z,17.38
2019-04-27T19:41:34.960Z,17.71
2019-04-27T19:44:03.554Z,17.77
2019-04-27T19:46:32.071Z,17.81
2019-04-27T19:49:00.684Z,17.72
2019-04-27T19:51:29.487Z,17.70
2019-04-27T19:53:58.269Z,17.41
2019-04-27T19:56:28.325Z,17.29
2019-04-27T19:58:59.976Z,17.24
2019-04-27T20:01:40.096Z,17.11
2019-04-27T20:04:27.481Z,17.15
2019-04-27T20:06:56.081Z,17.46
2019-04-27T20:09:50.081Z,17.56
2019-04-27T20:12:18.641Z,17.34
2019-04-27T20:14:56.200Z,17.40
2019-04-27T20:17:25.755Z,17.19
2019-04-27T20:19:55.027Z,17.60
2019-04-27T20:22:24.819Z,17.75
2019-04-27T20:24:53.445Z,17.53
2019-04-27T20:27:21.949Z,17.78
2019-04-27T20:29:50.562Z,17.62
2019-04-27T20:32:21.375Z,17.72
2019-04-27T20:34:51.304Z,17.89
2019-04-27T20:37:21.031Z,17.49
2019-04-27T20:39:51.249Z,17.83
2019-04-27T20:42:21.081Z,18.52
2019-04-27T20:44:51.576Z,18.40
2019-04-27T20:47:20.777Z,18.30
2019-04-27T20:49:49.507Z,18.45
2019-04-27T20:52:49.633Z,18.53
2019-04-27T20:55:18.142Z,17.94
2019-04-27T20:57:58.811Z,18.06
2019-04-27T21:00:19.321Z,18.01
2019-04-27T21:03:07.967Z,17.95
2019-04-27T21:05:52.754Z,17.56
2019-04-27T21:08:21.954Z,17.85
2019-04-27T21:10:51.554Z,17.64
2019-04-27T21:13:20.131Z,17.63
2019-04-27T21:15:50.829Z,17.75
2019-04-27T21:18:19.233Z,17.76
2019-04-27T21:20:47.818Z,17.88
2019-04-27T21:23:16.389Z,17.77
2019-04-27T21:25:45.007Z,17.76
2019-04-27T21:28:18.561Z,17.90
2019-04-27T21:30:43.977Z,18.03
2019-04-27T21:33:12.473Z,17.60
2019-04-27T21:35:41.073Z,17.93
2019-04-27T21:38:11.540Z,18.03
2019-04-27T21:40:40.889Z,18.25
2019-04-27T21:43:11.258Z,18.08
2019-04-27T21:45:41.856Z,18.13
2019-04-27T21:48:10.995Z,17.82
2019-04-27T21:50:41.300Z,18.06
2019-04-27T21:53:17.389Z,18.33
2019-04-27T21:55:58.490Z,18.41
2019-04-27T21:58:28.839Z,18.48
2019-04-27T22:01:07.516Z,17.91
2019-04-27T22:03:36.103Z,18.06
2019-04-27T22:06:04.774Z,18.17
2019-04-27T22:08:33.371Z,17.99
2019-04-27T22:11:02.070Z,18.03
2019-04-27T22:13:31.147Z,18.07
2019-04-27T22:15:59.952Z,17.50
2019-04-27T22:18:28.574Z,17.69
2019-04-27T22:20:57.055Z,17.52
2019-04-27T22:23:38.329Z,17.72
2019-04-27T22:26:06.925Z,17.63
2019-04-27T22:28:46.190Z,18.18
2019-04-27T22:31:05.944Z,17.97
2019-04-27T22:33:34.534Z,18.11
2019-04-27T22:36:03.218Z,17.78
2019-04-27T22:38:32.705Z,17.80
2019-04-27T22:41:21.441Z,17.73
2019-04-27T22:44:21.605Z,17.41
2019-04-27T22:46:50.602Z,17.30
2019-04-27T22:49:21.022Z,17.53
2019-04-27T22:51:51.293Z,17.43
2019-04-27T22:54:21.745Z,17.49
2019-04-27T22:56:51.512Z,17.52
2019-04-27T22:59:28.377Z,17.57
2019-04-27T23:02:21.583Z,17.74
2019-04-27T23:04:56.147Z,17.43
2019-04-27T23:07:24.623Z,17.34
2019-04-27T23:09:53.210Z,17.33
2019-04-27T23:12:23.058Z,17.52
2019-04-27T23:14:51.795Z,17.60
2019-04-27T23:17:31.741Z,17.25
2019-04-27T23:20:01.413Z,17.40
2019-04-27T23:22:31.549Z,17.56
2019-04-27T23:25:01.076Z,17.73
2019-04-27T23:27:31.724Z,17.47
2019-04-27T23:30:01.442Z,17.67
2019-04-27T23:32:42.109Z,17.68
2019-04-27T23:35:10.905Z,17.68
2019-04-27T23:37:39.508Z,17.71
2019-04-27T23:40:08.503Z,17.36
2019-04-27T23:42:37.104Z,17.43
2019-04-27T23:45:06.275Z,17.42
2019-04-27T23:47:34.814Z,17.50
2019-04-27T23:50:03.846Z,17.37
2019-04-27T23:52:50.686Z,17.41
2019-04-27T23:55:22.390Z,17.43
2019-04-27T23:57:50.879Z,16.97
